Terminal Aerodrome Forecast
Issued by NWS Portland, ME

Home | Current Version | Previous Version | Text Only | Print | Product List | Glossary On
Versions: 1 2 3 4 5 6 7 8 9 10 11 12 13 14 15 16 17 18 19 20 21 22 23 24 25 26 27 28 29 30 31 32 33 34 35 36 37 38 39 40 41 42
000
FTUS41 KGYX 191120
TAFCON
TAF
KCON 191120Z 1912/2012 VRB04KT 5SM BR OVC022 WS020/23045KT
     FM191400 20009G16KT P6SM BKN020
     FM191800 20010G18KT P6SM OVC050
     FM192300 18010KT 2SM -DZ BR OVC005=

USA.gov is the U.S. government's official web portal to all federal, state and local government web resources and services.